Time;durP1;ratioP1;P1;durP2;ratioP2;P2;SDS_P1;SDS_P2;PMS_P1;PMS_P2;Temp;Humidity;BMP_temperature;BMP_pressure;BME280_temperature;BME280_humidity;BME280_pressure;Samples;Min_cycle;Max_cycle;Signal;HPM_P1;HPM_P2
2022/01/23 00:02:22;;;;;;;8.60;6.90;;;4.40;99.90;;;;;;5026804;28;20049;-77
2022/01/23 00:04:48;;;;;;;;;;;4.40;99.90;;;;;;5037736;28;20049;-77
2022/01/23 00:07:15;;;;;;;10.50;7.85;;;4.40;99.90;;;;;;5019805;28;19913;-78
2022/01/23 00:09:42;;;;;;;8.48;7.40;;;4.40;99.90;;;;;;5036692;28;20022;-77
2022/01/23 00:12:13;;;;;;;7.95;6.93;;;4.40;99.90;;;;;;5029458;28;20033;-77
2022/01/23 00:17:25;;;;;;;9.70;7.32;;;4.40;99.90;;;;;;5022673;28;20036;-78
2022/01/23 00:19:57;;;;;;;8.70;7.30;;;4.30;99.90;;;;;;5016237;28;20030;-77
2022/01/23 00:22:28;;;;;;;10.00;6.97;;;4.30;99.90;;;;;;5018145;28;20026;-78
2022/01/23 00:30:30;;;;;;;8.80;7.32;;;4.30;99.90;;;;;;5016749;28;20393;-78
2022/01/23 00:33:01;;;;;;;10.95;7.38;;;4.30;99.90;;;;;;5020204;28;20081;-78
2022/01/23 00:35:28;;;;;;;9.38;7.22;;;4.40;99.90;;;;;;5024762;28;20124;-77
2022/01/23 00:37:54;;;;;;;10.02;7.03;;;4.40;99.90;;;;;;5020543;28;20028;-77
2022/01/23 00:40:20;;;;;;;9.88;7.35;;;4.40;99.90;;;;;;5020655;28;20449;-77
2022/01/23 00:42:47;;;;;;;8.70;7.05;;;4.40;99.90;;;;;;5021964;28;20148;-78
2022/01/23 00:45:29;;;;;;;7.25;6.40;;;4.40;99.90;;;;;;5021072;28;20026;-76
2022/01/23 00:48:01;;;;;;;10.25;8.30;;;4.40;99.90;;;;;;5021691;28;20030;-78
2022/01/23 00:50:29;;;;;;;10.15;8.18;;;4.40;99.90;;;;;;5033883;28;20120;-77
2022/01/23 00:52:55;;;;;;;9.80;8.13;;;4.40;99.90;;;;;;5018971;28;20030;-78
2022/01/23 00:55:21;;;;;;;11.40;7.65;;;4.40;99.90;;;;;;5016612;28;20032;-79
2022/01/23 00:57:47;;;;;;;12.45;8.27;;;4.40;99.90;;;;;;5033622;28;20033;-77
2022/01/23 01:00:13;;;;;;;10.25;8.07;;;4.50;99.90;;;;;;5018521;28;20076;-77
2022/01/23 01:02:39;;;;;;;11.50;8.50;;;4.70;99.90;;;;;;5016476;28;20018;-78
2022/01/23 01:05:06;;;;;;;11.10;8.07;;;4.70;99.90;;;;;;5017518;28;20397;-78
2022/01/23 01:07:31;;;;;;;9.27;7.90;;;4.70;99.90;;;;;;5017265;28;20029;-79
2022/01/23 01:10:01;;;;;;;13.35;8.98;;;4.80;99.90;;;;;;5019125;28;20076;-77
2022/01/23 01:12:36;;;;;;;12.27;8.73;;;4.70;99.90;;;;;;5016961;28;20375;-78
2022/01/23 01:31:19;;;;;;;12.32;9.05;;;4.60;99.90;;;;;;5014509;28;20064;-77
2022/01/23 01:33:53;;;;;;;11.63;8.60;;;4.50;99.90;;;;;;5015322;28;20025;-77
2022/01/23 01:36:33;;;;;;;12.38;9.50;;;4.50;99.90;;;;;;5036147;28;20486;-77
2022/01/23 01:38:59;;;;;;;13.40;8.48;;;4.60;99.90;;;;;;5031703;28;20032;-76
2022/01/23 01:41:25;;;;;;;12.60;9.90;;;4.60;99.90;;;;;;5023443;28;20022;-78
2022/01/23 01:43:52;;;;;;;11.38;9.05;;;4.60;99.90;;;;;;5021998;28;20080;-78
2022/01/23 01:46:18;;;;;;;15.18;9.48;;;4.60;99.90;;;;;;5028854;28;20040;-77
2022/01/23 01:48:44;;;;;;;12.82;9.65;;;4.80;99.90;;;;;;5039047;28;20116;-76
2022/01/23 01:51:14;;;;;;;13.45;10.57;;;4.70;99.90;;;;;;5037556;28;20093;-76
2022/01/23 01:53:45;;;;;;;13.65;9.40;;;4.60;99.90;;;;;;5020098;28;20029;-76
2022/01/23 01:56:11;;;;;;;14.60;11.07;;;4.50;99.90;;;;;;5020956;28;20030;-77
2022/01/23 02:02:42;;;;;;;13.13;9.93;;;4.30;99.90;;;;;;5023185;28;20032;-77
2022/01/23 02:09:20;;;;;;;14.70;10.02;;;4.30;99.90;;;;;;5021666;28;20513;-76
2022/01/23 02:17:51;;;;;;;12.10;10.20;;;4.60;99.90;;;;;;5019768;28;20026;-76
2022/01/23 02:55:15;;;;;;;12.93;9.98;;;4.20;99.90;;;;;;5041245;28;20041;-77
2022/01/23 03:00:16;;;;;;;13.93;11.15;;;4.20;99.90;;;;;;5033954;28;20041;-77
2022/01/23 03:02:46;;;;;;;14.00;11.82;;;4.30;99.90;;;;;;5030455;28;20026;-77
2022/01/23 03:05:32;;;;;;;13.68;10.60;;;4.20;99.90;;;;;;5023468;28;20021;-77
2022/01/23 03:10:39;;;;;;;15.75;11.55;;;4.20;99.90;;;;;;5025371;28;20048;-77
2022/01/23 03:24:07;;;;;;;14.60;11.68;;;4.40;99.90;;;;;;5033128;28;20040;-77
2022/01/23 03:24:37;;;;;;;14.13;11.75;;;4.30;99.90;;;;;;5032419;28;20033;-76
2022/01/23 03:29:54;;;;;;;17.65;12.68;;;4.50;99.90;;;;;;5026680;28;20544;-76
2022/01/23 03:32:30;;;;;;;16.35;12.93;;;4.40;99.90;;;;;;5032126;28;20045;-76
2022/01/23 03:34:56;;;;;;;16.58;13.02;;;4.40;99.90;;;;;;5031388;28;20033;-78
2022/01/23 03:37:22;;;;;;;17.25;12.82;;;4.40;99.90;;;;;;5049823;28;20515;-76
2022/01/23 03:39:47;;;;;;;17.70;13.25;;;4.40;99.90;;;;;;5031302;28;20022;-76
2022/01/23 03:42:13;;;;;;;17.05;12.80;;;4.50;99.90;;;;;;5025632;28;20033;-76
2022/01/23 03:44:44;;;;;;;17.02;12.77;;;4.50;99.90;;;;;;5023292;28;20029;-76
2022/01/23 03:47:31;;;;;;;17.08;12.90;;;4.60;99.90;;;;;;5025911;28;20139;-77
2022/01/23 03:49:57;;;;;;;16.00;12.82;;;4.50;99.90;;;;;;5025498;28;20085;-77
2022/01/23 03:52:24;;;;;;;20.05;13.07;;;4.50;99.90;;;;;;5024756;28;20033;-77
2022/01/23 03:54:49;;;;;;;15.65;12.57;;;4.50;99.90;;;;;;5026495;28;20017;-77
2022/01/23 03:57:15;;;;;;;16.55;13.50;;;4.40;99.90;;;;;;5040067;28;20014;-76
2022/01/23 03:59:41;;;;;;;17.17;12.02;;;4.40;99.90;;;;;;5039913;28;20058;-76
2022/01/23 04:02:06;;;;;;;17.98;12.90;;;4.40;99.90;;;;;;5039911;28;20033;-77
2022/01/23 04:07:01;;;;;;;18.23;12.50;;;4.30;99.90;;;;;;5033350;28;20045;-77
2022/01/23 04:09:26;;;;;;;17.05;12.30;;;4.30;99.90;;;;;;5027450;28;20030;-77
2022/01/23 04:11:52;;;;;;;17.95;13.48;;;4.30;99.90;;;;;;5025947;28;20030;-77
2022/01/23 04:14:20;;;;;;;19.55;12.80;;;4.30;99.90;;;;;;5026186;28;20090;-77
2022/01/23 04:59:50;;;;;;;18.20;13.95;;;4.20;99.90;;;;;;5027585;28;20045;-77
2022/01/23 05:04:53;;;;;;;18.90;13.38;;;4.40;99.90;;;;;;5021529;28;20033;-77
2022/01/23 05:07:19;;;;;;;17.85;12.90;;;4.40;99.90;;;;;;5018363;28;20022;-77
2022/01/23 05:09:46;;;;;;;18.95;13.88;;;4.50;99.90;;;;;;5023250;28;20056;-77
2022/01/23 05:12:13;;;;;;;18.52;14.85;;;4.50;99.90;;;;;;5026636;28;20464;-77
2022/01/23 05:14:42;;;;;;;17.45;13.93;;;4.40;99.90;;;;;;5029252;28;20033;-77
2022/01/23 05:17:15;;;;;;;21.17;15.13;;;4.30;99.90;;;;;;5022277;28;20101;-77
2022/01/23 05:19:42;;;;;;;20.55;14.52;;;4.50;99.90;;;;;;5030051;28;20025;-77
2022/01/23 05:25:06;;;;;;;19.20;14.80;;;4.60;99.90;;;;;;5025990;28;20030;-77
2022/01/23 05:27:32;;;;;;;20.67;14.95;;;4.40;99.90;;;;;;5016001;28;20018;-76
2022/01/23 05:29:59;;;;;;;20.38;15.35;;;4.30;99.90;;;;;;5014287;28;20393;-78
2022/01/23 05:32:34;;;;;;;22.75;15.02;;;4.50;99.90;;;;;;5017578;28;20026;-78
2022/01/23 05:34:59;;;;;;;23.38;14.70;;;4.50;99.90;;;;;;5029550;28;20125;-77
2022/01/23 05:37:25;;;;;;;23.42;17.10;;;4.30;99.90;;;;;;5038058;28;20014;-77
2022/01/23 05:39:50;;;;;;;23.70;15.43;;;4.30;99.90;;;;;;5037845;28;20022;-77
2022/01/23 05:42:16;;;;;;;24.27;15.23;;;4.20;99.90;;;;;;5038166;28;20101;-76
2022/01/23 05:44:42;;;;;;;22.00;15.20;;;4.20;99.90;;;;;;5037762;28;20013;-76
2022/01/23 05:47:10;;;;;;;30.35;17.58;;;4.20;99.90;;;;;;5037476;28;20037;-77
2022/01/23 05:49:36;;;;;;;21.58;15.57;;;4.10;99.90;;;;;;5028726;28;20053;-76
2022/01/23 05:52:03;;;;;;;20.70;14.93;;;4.10;99.90;;;;;;5035437;28;20026;-76
2022/01/23 05:54:29;;;;;;;23.00;15.65;;;4.10;99.90;;;;;;5037933;28;20029;-75
2022/01/23 05:56:55;;;;;;;23.30;16.98;;;4.10;99.90;;;;;;5038595;28;20009;-75
2022/01/23 05:59:21;;;;;;;24.55;16.73;;;4.10;99.90;;;;;;5037778;28;20086;-76
2022/01/23 06:01:51;;;;;;;18.85;14.70;;;4.20;99.90;;;;;;5038269;28;20048;-78
2022/01/23 06:04:17;;;;;;;21.25;15.35;;;4.40;99.90;;;;;;5038327;28;20010;-77
2022/01/23 06:06:43;;;;;;;21.42;15.07;;;4.40;99.90;;;;;;5037379;28;20026;-77
2022/01/23 06:09:08;;;;;;;25.77;15.43;;;4.40;99.90;;;;;;5036392;28;20065;-77
2022/01/23 06:11:34;;;;;;;19.92;14.85;;;4.40;99.90;;;;;;5034070;28;20056;-77
2022/01/23 06:14:00;;;;;;;23.80;16.25;;;4.50;99.90;;;;;;5031444;28;20034;-77
2022/01/23 06:16:25;;;;;;;22.52;15.95;;;4.40;99.90;;;;;;5030381;28;20032;-77
2022/01/23 06:18:51;;;;;;;21.80;16.23;;;4.40;99.90;;;;;;5030517;28;20026;-77
2022/01/23 06:21:19;;;;;;;20.15;15.68;;;4.40;99.90;;;;;;5031300;28;20069;-76
2022/01/23 06:23:48;;;;;;;25.17;17.33;;;4.30;99.90;;;;;;5030616;28;20021;-76
2022/01/23 06:26:15;;;;;;;24.35;15.52;;;4.20;99.90;;;;;;5028198;28;20049;-77
2022/01/23 06:28:55;;;;;;;19.88;15.25;;;4.20;99.90;;;;;;5031250;28;20127;-77
2022/01/23 06:31:21;;;;;;;22.92;16.55;;;4.20;99.90;;;;;;5029900;28;20068;-77
2022/01/23 06:33:47;;;;;;;25.02;17.13;;;4.10;99.90;;;;;;5036986;28;20066;-76
2022/01/23 06:36:12;;;;;;;24.60;17.27;;;4.10;99.90;;;;;;5036760;28;20085;-76
2022/01/23 06:38:38;;;;;;;24.13;15.30;;;4.20;99.90;;;;;;5038181;28;20064;-77
2022/01/23 06:41:04;;;;;;;25.35;16.48;;;4.40;99.90;;;;;;5038648;28;20010;-77
2022/01/23 06:43:30;;;;;;;21.98;15.50;;;4.60;99.90;;;;;;5038645;28;20077;-77
2022/01/23 06:45:56;;;;;;;23.13;16.17;;;4.50;99.90;;;;;;5036041;28;20112;-77
2022/01/23 06:48:21;;;;;;;22.88;15.85;;;4.40;99.90;;;;;;5035632;28;20037;-76
2022/01/23 06:50:47;;;;;;;20.05;15.73;;;4.30;99.90;;;;;;5050199;28;20057;-75
2022/01/23 06:53:13;;;;;;;24.63;16.60;;;4.30;99.90;;;;;;5036906;28;20022;-77
2022/01/23 06:55:38;;;;;;;22.02;15.23;;;4.20;99.90;;;;;;5049866;28;20477;-75
2022/01/23 06:58:04;;;;;;;25.00;17.23;;;4.20;99.90;;;;;;5034887;28;20513;-75
2022/01/23 07:00:32;;;;;;;22.27;15.57;;;4.20;99.90;;;;;;5033528;28;20418;-77
2022/01/23 07:02:57;;;;;;;25.17;16.80;;;4.30;99.90;;;;;;5028482;28;20030;-76
2022/01/23 07:05:23;;;;;;;25.25;16.35;;;4.30;99.90;;;;;;5030135;28;20084;-77
2022/01/23 07:07:48;;;;;;;22.73;15.38;;;4.30;99.90;;;;;;5030538;28;20482;-76
2022/01/23 07:10:16;;;;;;;26.33;16.15;;;4.40;99.90;;;;;;5032493;28;20041;-76
2022/01/23 07:12:42;;;;;;;24.10;16.70;;;4.40;99.90;;;;;;5051265;28;20022;-77
2022/01/23 07:15:08;;;;;;;20.85;15.65;;;4.30;99.90;;;;;;5032418;28;20097;-77
2022/01/23 07:17:42;;;;;;;22.48;15.75;;;4.20;99.90;;;;;;5029482;28;20026;-77
2022/01/23 07:20:08;;;;;;;26.58;17.25;;;4.20;99.90;;;;;;5030955;28;20405;-76
2022/01/23 07:22:34;;;;;;;27.45;18.10;;;4.10;99.90;;;;;;5031463;28;20029;-77
2022/01/23 07:25:02;;;;;;;23.40;16.77;;;4.20;99.90;;;;;;5031885;28;20053;-76
2022/01/23 07:27:32;;;;;;;26.90;17.45;;;4.20;99.90;;;;;;5033212;28;20054;-77
2022/01/23 07:29:57;;;;;;;21.75;17.33;;;4.20;99.90;;;;;;5047057;28;20456;-79
2022/01/23 07:32:23;;;;;;;25.10;16.90;;;4.40;99.90;;;;;;5029366;28;20086;-76
2022/01/23 07:34:48;;;;;;;23.90;17.25;;;4.40;99.90;;;;;;5048413;23;20406;-71
2022/01/23 07:37:15;;;;;;;25.05;16.92;;;4.30;99.90;;;;;;5023974;28;20025;-74
2022/01/23 07:39:40;;;;;;;26.83;18.13;;;4.30;99.90;;;;;;5015245;28;20033;-74
2022/01/23 07:42:07;;;;;;;20.15;15.57;;;4.40;99.90;;;;;;5017415;28;20482;-74
2022/01/23 07:44:33;;;;;;;20.95;15.88;;;4.30;99.90;;;;;;5017320;28;20030;-74
2022/01/23 07:46:58;;;;;;;21.92;15.32;;;4.50;99.90;;;;;;5016585;28;20102;-74
2022/01/23 07:49:24;;;;;;;26.95;16.65;;;4.50;99.90;;;;;;5017753;28;20178;-73
2022/01/23 07:51:50;;;;;;;24.73;17.27;;;4.50;99.90;;;;;;5016183;28;20042;-75
2022/01/23 07:54:16;;;;;;;23.40;18.20;;;4.50;99.90;;;;;;5016064;28;20030;-74
2022/01/23 07:56:42;;;;;;;26.15;16.90;;;4.80;99.90;;;;;;5016050;28;20498;-75
2022/01/23 07:59:09;;;;;;;20.60;15.95;;;4.70;99.90;;;;;;5015583;28;20026;-74
2022/01/23 08:01:38;;;;;;;23.30;15.75;;;4.70;99.90;;;;;;5029863;28;20523;-74
2022/01/23 08:04:05;;;;;;;26.25;16.60;;;4.80;99.90;;;;;;5015277;28;20529;-73
2022/01/23 08:06:33;;;;;;;26.23;17.50;;;4.80;99.90;;;;;;5016259;28;20394;-73
2022/01/23 08:08:59;;;;;;;27.13;17.98;;;4.80;99.90;;;;;;5014910;28;20470;-74
2022/01/23 08:11:24;;;;;;;24.75;17.05;;;4.70;99.90;;;;;;5015366;28;20049;-74
2022/01/23 08:13:50;;;;;;;27.30;18.75;;;4.70;99.90;;;;;;5028956;28;20036;-75
2022/01/23 08:16:15;;;;;;;25.05;17.63;;;4.70;99.90;;;;;;5019361;28;20061;-75
2022/01/23 08:18:41;;;;;;;22.85;16.65;;;4.70;99.90;;;;;;5018186;28;20064;-74
2022/01/23 08:21:08;;;;;;;23.50;17.35;;;4.80;99.90;;;;;;5015169;28;20034;-74
2022/01/23 08:23:33;;;;;;;24.77;17.27;;;4.80;99.90;;;;;;5014838;28;20029;-75
2022/01/23 08:25:59;;;;;;;23.17;17.00;;;4.80;99.90;;;;;;5015765;28;20022;-72
2022/01/23 08:28:25;;;;;;;24.85;16.92;;;5.00;99.90;;;;;;5016233;28;20041;-73
2022/01/23 08:30:51;;;;;;;24.00;16.63;;;5.10;99.90;;;;;;5015251;28;20021;-74
2022/01/23 08:33:16;;;;;;;27.00;18.13;;;5.10;99.90;;;;;;5014972;28;20280;-75
2022/01/23 08:35:45;;;;;;;28.10;17.90;;;5.10;99.90;;;;;;5015217;28;20054;-75
2022/01/23 08:38:13;;;;;;;27.10;18.48;;;5.00;99.90;;;;;;5014606;28;20026;-74
2022/01/23 08:43:09;;;;;;;23.05;17.73;;;5.00;99.90;;;;;;5017327;28;20046;-72
2022/01/23 08:45:35;;;;;;;25.83;18.02;;;5.10;99.90;;;;;;5015577;28;20485;-74
2022/01/23 08:48:00;;;;;;;26.15;17.70;;;5.10;99.90;;;;;;5017045;28;20261;-73
2022/01/23 08:50:26;;;;;;;24.33;17.90;;;5.10;99.90;;;;;;5015357;28;20454;-73
2022/01/23 08:52:52;;;;;;;27.80;17.85;;;5.10;99.90;;;;;;5034543;28;20033;-73
2022/01/23 08:55:18;;;;;;;24.58;18.40;;;5.30;99.90;;;;;;5028926;28;20085;-73
2022/01/23 08:57:44;;;;;;;28.17;17.88;;;5.40;99.90;;;;;;5027526;28;20036;-73
2022/01/23 09:00:10;;;;;;;26.02;18.15;;;5.50;99.90;;;;;;5025771;28;20026;-74
2022/01/23 09:02:36;;;;;;;26.58;17.92;;;5.50;99.90;;;;;;5021382;28;20042;-72
2022/01/23 09:05:01;;;;;;;24.63;17.33;;;5.50;99.90;;;;;;5018388;28;20401;-74
2022/01/23 09:07:27;;;;;;;22.40;16.83;;;5.60;99.90;;;;;;5015151;28;20025;-73
2022/01/23 09:10:00;;;;;;;23.00;16.98;;;5.60;99.90;;;;;;5029240;28;20041;-73
2022/01/23 09:12:42;;;;;;;21.20;16.45;;;5.80;99.90;;;;;;5013581;28;20025;-73
2022/01/23 09:15:09;;;;;;;23.83;16.63;;;5.90;99.90;;;;;;5013766;28;20394;-74
2022/01/23 09:17:34;;;;;;;23.45;16.70;;;5.90;99.90;;;;;;5013731;28;20153;-74
2022/01/23 09:20:00;;;;;;;20.92;16.00;;;6.00;99.90;;;;;;5013617;28;20474;-73
2022/01/23 09:22:29;;;;;;;21.67;16.58;;;6.10;99.90;;;;;;5013647;28;20018;-73
2022/01/23 09:24:56;;;;;;;22.75;16.42;;;6.10;99.90;;;;;;5016919;28;20026;-73
2022/01/23 09:27:22;;;;;;;18.38;15.50;;;6.30;99.90;;;;;;5026208;28;20121;-74
2022/01/23 09:29:51;;;;;;;21.85;15.30;;;6.20;99.90;;;;;;5022298;28;20489;-72
2022/01/23 09:32:19;;;;;;;22.63;16.98;;;6.10;99.90;;;;;;5012314;28;20029;-74
2022/01/23 09:34:45;;;;;;;24.00;17.17;;;6.30;99.90;;;;;;5013306;28;20065;-72
2022/01/23 09:37:13;;;;;;;23.98;16.83;;;6.40;99.90;;;;;;5016858;28;20026;-73
2022/01/23 09:39:41;;;;;;;24.42;18.25;;;6.40;99.90;;;;;;5013521;28;20043;-73
2022/01/23 09:42:11;;;;;;;24.17;18.70;;;6.20;99.90;;;;;;5013164;28;20441;-72
2022/01/23 09:44:46;;;;;;;26.30;17.85;;;6.00;99.90;;;;;;5013172;28;20050;-74
2022/01/23 09:47:14;;;;;;;22.75;18.10;;;5.80;99.90;;;;;;5013750;28;20032;-73
2022/01/23 09:49:41;;;;;;;24.60;18.13;;;5.80;99.90;;;;;;5012822;28;20088;-74
2022/01/23 09:52:09;;;;;;;22.45;16.58;;;6.10;99.90;;;;;;5013090;28;20022;-74
2022/01/23 09:54:38;;;;;;;21.40;17.23;;;6.40;99.90;;;;;;5012888;28;20026;-73
2022/01/23 09:57:05;;;;;;;21.63;15.32;;;6.70;99.90;;;;;;5013102;28;20049;-74
2022/01/23 09:59:31;;;;;;;22.00;16.00;;;6.70;99.90;;;;;;5028149;28;20477;-72
2022/01/23 10:01:57;;;;;;;22.75;16.40;;;6.80;99.90;;;;;;5013310;28;20034;-75
2022/01/23 10:04:24;;;;;;;26.00;19.73;;;6.90;99.90;;;;;;5013253;28;20389;-73
2022/01/23 10:06:51;;;;;;;22.27;17.10;;;6.90;99.90;;;;;;5014624;28;20080;-72
2022/01/23 10:09:21;;;;;;;25.23;18.73;;;6.70;99.90;;;;;;5014053;28;20054;-73
2022/01/23 10:11:49;;;;;;;21.35;17.40;;;6.90;99.90;;;;;;5011610;28;20026;-74
2022/01/23 10:14:15;;;;;;;26.15;18.70;;;7.00;99.90;;;;;;5028019;28;20033;-73
2022/01/23 10:16:41;;;;;;;19.73;16.77;;;7.00;99.90;;;;;;5011985;28;20036;-72
2022/01/23 10:19:08;;;;;;;23.58;16.05;;;6.90;99.90;;;;;;5022169;28;20030;-73
2022/01/23 10:21:36;;;;;;;17.02;14.00;;;7.00;99.90;;;;;;5040759;28;20057;-74
2022/01/23 10:24:02;;;;;;;19.48;15.25;;;6.90;99.90;;;;;;5013426;28;20018;-73
2022/01/23 10:26:46;;;;;;;20.90;15.98;;;7.00;99.90;;;;;;5012970;28;20072;-72
2022/01/23 10:29:26;;;;;;;17.92;14.45;;;6.90;99.90;;;;;;5012913;28;20032;-73
2022/01/23 10:32:10;;;;;;;16.73;12.48;;;6.90;99.90;;;;;;5012908;28;20036;-73
2022/01/23 10:34:40;;;;;;;14.48;11.70;;;7.30;99.90;;;;;;5012693;28;20080;-72
2022/01/23 10:37:06;;;;;;;16.42;12.35;;;7.40;99.90;;;;;;5012717;28;20446;-73
2022/01/23 10:39:42;;;;;;;14.48;11.95;;;7.40;99.90;;;;;;5014259;28;20029;-73
2022/01/23 10:48:13;;;;;;;14.88;11.68;;;7.50;99.90;;;;;;5014259;28;20164;-73
2022/01/23 10:50:39;;;;;;;17.75;13.50;;;7.50;99.90;;;;;;5013787;28;20083;-73
2022/01/23 10:53:05;;;;;;;17.65;13.77;;;7.60;99.90;;;;;;5013362;28;20108;-72
2022/01/23 10:55:33;;;;;;;15.52;12.73;;;7.60;99.90;;;;;;5013084;28;20445;-73
2022/01/23 10:58:02;;;;;;;14.88;11.75;;;7.50;99.90;;;;;;5013011;28;20064;-73
2022/01/23 11:00:38;;;;;;;16.27;13.95;;;7.40;99.90;;;;;;5012534;28;20513;-74
2022/01/23 11:03:18;;;;;;;19.50;14.75;;;7.40;99.90;;;;;;5013098;28;20034;-74
2022/01/23 11:05:45;;;;;;;18.60;14.90;;;7.50;99.90;;;;;;5014140;28;20076;-74
2022/01/23 11:08:21;;;;;;;22.13;15.50;;;7.40;99.90;;;;;;5013014;28;20484;-73
2022/01/23 11:11:01;;;;;;;18.42;14.15;;;7.40;99.90;;;;;;5012593;28;20030;-74
2022/01/23 11:19:27;;;;;;;20.67;12.32;;;7.20;99.90;;;;;;5012795;28;20045;-74
2022/01/23 11:21:53;;;;;;;15.43;12.98;;;7.50;99.90;;;;;;5015609;28;20133;-73
2022/01/23 11:24:20;;;;;;;19.65;14.63;;;7.40;99.90;;;;;;5033137;28;20026;-73
2022/01/23 11:26:46;;;;;;;18.80;14.02;;;7.10;99.90;;;;;;5018336;28;20022;-73
2022/01/23 11:29:18;;;;;;;18.13;14.05;;;7.40;99.90;;;;;;5015968;28;20473;-74
2022/01/23 11:31:45;;;;;;;13.80;11.60;;;7.40;99.90;;;;;;5014296;28;20034;-74
2022/01/23 11:34:13;;;;;;;18.63;14.30;;;7.60;99.90;;;;;;5014160;28;20049;-74
2022/01/23 11:36:39;;;;;;;12.60;11.27;;;7.60;99.90;;;;;;5015530;28;20516;-74
2022/01/23 11:39:17;;;;;;;12.88;10.75;;;7.60;99.90;;;;;;5015677;28;20441;-72
2022/01/23 11:56:25;;;;;;;16.83;11.68;;;7.30;99.90;;;;;;5015849;28;20114;-72
2022/01/23 11:59:09;;;;;;;14.55;12.40;;;7.50;99.90;;;;;;5025719;28;20084;-72
2022/01/23 12:01:36;;;;;;;15.40;13.65;;;7.10;99.90;;;;;;5028728;28;20014;-74
2022/01/23 12:04:15;;;;;;;17.55;12.05;;;7.00;99.90;;;;;;5030365;28;20045;-73
2022/01/23 12:06:42;;;;;;;17.77;12.65;;;7.40;99.90;;;;;;5023444;28;20029;-73
2022/01/23 12:09:17;;;;;;;14.30;11.15;;;7.50;99.90;;;;;;5018530;28;20083;-74
2022/01/23 12:12:08;;;;;;;13.82;11.63;;;7.60;99.90;;;;;;5015452;28;20116;-73
2022/01/23 12:17:09;;;;;;;15.23;12.93;;;7.60;99.90;;;;;;5015328;28;19959;-74
2022/01/23 12:19:45;;;;;;;17.23;13.30;;;7.70;99.90;;;;;;5014821;28;20403;-74
2022/01/23 12:22:33;;;;;;;18.98;13.95;;;7.70;99.90;;;;;;5015573;28;20037;-74
2022/01/23 12:25:07;;;;;;;19.30;14.02;;;7.40;99.90;;;;;;5016978;28;20015;-73
2022/01/23 12:27:32;;;;;;;21.65;15.20;;;7.50;99.90;;;;;;5014860;28;20060;-73
2022/01/23 12:30:18;;;;;;;17.17;13.80;;;7.70;99.90;;;;;;5014428;28;20054;-75
2022/01/23 12:32:44;;;;;;;19.05;13.25;;;7.80;99.90;;;;;;5007318;28;20034;-74
2022/01/23 12:35:10;;;;;;;16.52;12.18;;;7.70;99.90;;;;;;5014630;28;20039;-73
2022/01/23 12:37:55;;;;;;;14.35;11.75;;;7.70;99.90;;;;;;5014305;28;20082;-73
2022/01/23 12:40:37;;;;;;;16.67;12.18;;;7.60;99.90;;;;;;5014499;28;20030;-74
2022/01/23 12:43:04;;;;;;;16.35;12.60;;;7.50;99.90;;;;;;5014807;28;20105;-74
2022/01/23 12:45:45;;;;;;;13.88;11.60;;;7.30;99.90;;;;;;5014139;28;20030;-75
2022/01/23 12:48:25;;;;;;;14.18;11.63;;;7.20;99.90;;;;;;5014957;28;20030;-73
2022/01/23 12:50:56;;;;;;;16.13;12.63;;;7.30;99.90;;;;;;5030195;28;20026;-72
2022/01/23 12:53:34;;;;;;;13.18;11.43;;;7.30;99.90;;;;;;5015110;28;20343;-73
2022/01/23 12:56:12;;;;;;;12.07;9.77;;;7.40;99.90;;;;;;5016848;28;20061;-74
2022/01/23 12:58:38;;;;;;;18.38;11.15;;;7.50;99.90;;;;;;5017173;28;20084;-75
2022/01/23 13:01:17;;;;;;;14.88;10.93;;;7.30;99.90;;;;;;5013817;28;20034;-74
2022/01/23 13:03:53;;;;;;;11.48;10.10;;;7.50;99.90;;;;;;5013080;28;20071;-74
2022/01/23 13:06:33;;;;;;;12.27;10.80;;;7.50;99.90;;;;;;5014511;28;20056;-73
2022/01/23 13:09:21;;;;;;;15.18;11.30;;;7.40;99.90;;;;;;5021369;28;20026;-73
2022/01/23 13:12:06;;;;;;;15.30;12.00;;;7.10;99.90;;;;;;5031526;28;20030;-74
2022/01/23 13:15:43;;;;;;;11.93;10.10;;;7.20;99.90;;;;;;5016072;28;20407;-74
2022/01/23 13:17:40;;;;;;;3.15;2.80;;;7.50;99.90;;;;;;5006967;28;20038;-73
2022/01/23 13:31:46;;;;;;;3.97;3.55;;;7.50;99.90;;;;;;5013716;28;20022;-74
2022/01/23 13:34:34;;;;;;;4.80;4.07;;;7.60;99.90;;;;;;5029259;28;20026;-73
2022/01/23 13:37:02;;;;;;;7.53;3.47;;;7.20;99.90;;;;;;5057069;23;20049;-78
2022/01/23 13:39:34;;;;;;;5.53;3.28;;;7.30;99.90;;;;;;5020528;28;20018;-77
2022/01/23 13:42:34;;;;;;;7.22;2.90;;;7.60;99.90;;;;;;5026676;28;20018;-77
2022/01/23 13:59:27;;;;;;;4.55;2.63;;;7.40;99.90;;;;;;5008921;28;20041;-77
2022/01/23 14:04:25;;;;;;;4.47;2.40;;;7.40;99.90;;;;;;5000994;28;20370;-77
2022/01/23 14:06:53;;;;;;;4.07;2.13;;;7.30;99.90;;;;;;5000200;28;20019;-78
2022/01/23 14:09:20;;;;;;;5.22;1.88;;;7.30;99.90;;;;;;5002109;28;20022;-77
2022/01/23 14:11:46;;;;;;;2.60;1.73;;;7.30;99.90;;;;;;5011571;28;20097;-80
2022/01/23 14:14:27;;;;;;;2.90;2.00;;;7.30;99.90;;;;;;5009146;28;20042;-77
2022/01/23 14:16:54;;;;;;;3.10;2.72;;;7.40;99.90;;;;;;5006346;28;20054;-78
2022/01/23 14:19:29;;;;;;;2.20;2.00;;;7.40;99.90;;;;;;5006682;28;20030;-76
2022/01/23 14:22:00;;;;;;;2.90;2.60;;;7.50;99.90;;;;;;5005439;28;20023;-77
2022/01/23 14:24:30;;;;;;;2.25;1.83;;;7.50;99.90;;;;;;5010703;28;20078;-78
2022/01/23 14:26:55;;;;;;;2.22;1.92;;;7.40;99.90;;;;;;5006694;28;20034;-79
2022/01/23 14:29:22;;;;;;;3.80;2.20;;;7.20;99.90;;;;;;5002521;28;20026;-77
2022/01/23 14:32:06;;;;;;;2.50;2.30;;;7.30;99.90;;;;;;5004506;28;20110;-76
2022/01/23 14:34:32;;;;;;;2.88;2.58;;;7.30;99.90;;;;;;5008581;28;20006;-77
2022/01/23 14:37:01;;;;;;;2.72;2.10;;;7.30;99.90;;;;;;5010608;28;20029;-77
2022/01/23 14:39:26;;;;;;;3.40;2.25;;;7.30;99.90;;;;;;5026668;28;20026;-79
2022/01/23 14:41:52;;;;;;;4.53;2.60;;;7.10;99.90;;;;;;5013612;28;20050;-79
2022/01/23 14:44:26;;;;;;;3.17;2.50;;;7.00;99.90;;;;;;5009675;28;20053;-77
2022/01/23 14:46:55;;;;;;;2.88;2.30;;;7.10;99.90;;;;;;5009697;28;20026;-77
2022/01/23 14:49:27;;;;;;;3.65;2.22;;;7.00;99.90;;;;;;5015616;28;20098;-77
2022/01/23 14:51:59;;;;;;;3.22;2.92;;;6.90;99.90;;;;;;5021362;28;20057;-79
2022/01/23 14:54:26;;;;;;;2.35;2.05;;;6.70;99.90;;;;;;5018468;28;20006;-79
2022/01/23 14:56:52;;;;;;;2.60;2.40;;;6.60;99.90;;;;;;5019955;28;20010;-77
2022/01/23 14:59:18;;;;;;;5.50;3.00;;;6.60;99.90;;;;;;5013162;28;20093;-78
2022/01/23 15:01:46;;;;;;;3.03;2.05;;;6.40;99.90;;;;;;5008050;28;20027;-78
2022/01/23 15:04:12;;;;;;;2.92;2.33;;;6.60;99.90;;;;;;5004787;28;20025;-79
2022/01/23 15:06:46;;;;;;;2.17;1.98;;;6.80;99.90;;;;;;5008491;28;20402;-79
2022/01/23 15:09:13;;;;;;;2.40;2.10;;;6.70;99.90;;;;;;5005042;28;20052;-78
2022/01/23 15:11:39;;;;;;;3.00;2.55;;;6.70;99.90;;;;;;5005034;28;20022;-78
2022/01/23 15:14:06;;;;;;;3.38;2.20;;;6.80;99.90;;;;;;5018335;28;20093;-78
2022/01/23 15:16:32;;;;;;;3.20;2.70;;;6.60;99.90;;;;;;5003888;28;20487;-79
2022/01/23 15:18:58;;;;;;;3.92;2.70;;;6.40;99.90;;;;;;5007051;28;20105;-79
2022/01/23 15:21:24;;;;;;;3.70;3.05;;;6.40;99.90;;;;;;5005820;28;20371;-78
2022/01/23 15:23:55;;;;;;;3.50;2.58;;;6.30;99.90;;;;;;5006431;28;20030;-77
2022/01/23 15:26:26;;;;;;;3.72;3.10;;;6.40;99.90;;;;;;5005754;28;20097;-78
2022/01/23 15:28:52;;;;;;;4.03;2.60;;;6.30;99.90;;;;;;5021236;28;20033;-76
2022/01/23 15:31:17;;;;;;;4.13;2.90;;;6.40;99.90;;;;;;5011310;28;20034;-78
2022/01/23 15:33:43;;;;;;;3.35;3.03;;;6.40;99.90;;;;;;5008377;28;20056;-78
2022/01/23 15:36:09;;;;;;;2.97;2.70;;;6.50;99.90;;;;;;5005945;28;20042;-79
2022/01/23 15:38:41;;;;;;;5.72;3.90;;;6.50;99.90;;;;;;5005342;28;20034;-79
2022/01/23 15:41:07;;;;;;;2.90;2.50;;;6.60;99.90;;;;;;5007093;28;20497;-79
2022/01/23 15:43:33;;;;;;;5.95;3.22;;;6.60;99.90;;;;;;5007990;28;20023;-78
2022/01/23 15:45:59;;;;;;;4.10;3.70;;;6.60;99.90;;;;;;5012553;28;20091;-77
2022/01/23 15:48:26;;;;;;;5.45;3.35;;;6.50;99.90;;;;;;5007900;28;20014;-78
2022/01/23 15:50:52;;;;;;;5.53;3.60;;;6.60;99.90;;;;;;5005736;28;20060;-79
2022/01/23 15:53:18;;;;;;;4.78;3.50;;;6.50;99.90;;;;;;5005589;28;20490;-78
2022/01/23 15:55:44;;;;;;;4.05;3.50;;;6.50;99.90;;;;;;5003427;28;20034;-78
2022/01/23 15:58:09;;;;;;;6.47;3.72;;;6.50;99.90;;;;;;5003724;28;20030;-77
2022/01/23 16:00:35;;;;;;;5.05;3.17;;;6.50;99.90;;;;;;5007149;28;20034;-77
2022/01/23 16:03:01;;;;;;;4.68;3.53;;;6.40;99.90;;;;;;5005787;28;20402;-79
2022/01/23 16:05:26;;;;;;;4.07;3.55;;;6.40;99.90;;;;;;5004724;28;20094;-77
2022/01/23 16:07:53;;;;;;;4.13;3.75;;;6.40;99.90;;;;;;5003341;28;20049;-78
2022/01/23 16:10:19;;;;;;;3.63;3.10;;;6.40;99.90;;;;;;5007372;28;20026;-78
2022/01/23 16:12:44;;;;;;;3.72;2.70;;;6.30;99.90;;;;;;5028922;28;20375;-78
2022/01/23 16:15:14;;;;;;;3.08;2.80;;;6.30;99.90;;;;;;5025108;28;20030;-78